createdAt,value
2023-04-09T00:00:05.103Z,18.100
2023-04-09T00:01:05.271Z,17.000
2023-04-09T00:02:05.573Z,18.000
2023-04-09T00:03:05.068Z,19.300
2023-04-09T00:04:06.009Z,18.000
2023-04-09T00:05:06.003Z,29.000
2023-04-09T00:06:05.151Z,29.200
2023-04-09T00:07:05.292Z,21.200
2023-04-09T00:08:05.470Z,19.000
2023-04-09T00:09:06.248Z,15.900
2023-04-09T00:10:05.479Z,15.900
2023-04-09T00:11:05.749Z,17.500
2023-04-09T00:12:04.860Z,19.000
2023-04-09T00:13:05.012Z,16.600
2023-04-09T00:14:10.069Z,17.400
2023-04-09T00:15:05.339Z,16.600
2023-04-09T00:16:05.556Z,17.400
2023-04-09T00:17:05.919Z,25.100
2023-04-09T00:18:05.118Z,17.300
2023-04-09T00:19:05.965Z,16.900
2023-04-09T00:21:05.391Z,18.000
2023-04-09T00:22:05.581Z,21.500
2023-04-09T00:23:06.782Z,19.300
2023-04-09T00:24:04.927Z,19.200
2023-04-09T00:25:05.109Z,18.400
2023-04-09T00:26:05.351Z,17.400
2023-04-09T00:27:05.535Z,18.400
2023-04-09T00:28:05.811Z,17.900
2023-04-09T00:29:05.461Z,18.000
2023-04-09T00:30:05.880Z,18.400
2023-04-09T00:31:05.055Z,18.200
2023-04-09T00:32:05.370Z,17.100
2023-04-09T00:33:05.913Z,18.600
2023-04-09T00:34:05.163Z,18.800
2023-04-09T00:35:05.461Z,18.700
2023-04-09T00:36:05.826Z,18.700
2023-04-09T00:37:04.980Z,18.700
2023-04-09T00:38:05.146Z,17.900
2023-04-09T00:39:06.028Z,18.100
2023-04-09T00:40:05.175Z,17.900
2023-04-09T00:41:05.605Z,17.300
2023-04-09T00:42:05.778Z,18.400
2023-04-09T00:43:04.940Z,18.300
2023-04-09T00:44:05.080Z,19.900
2023-04-09T00:45:05.342Z,18.200
2023-04-09T00:46:05.703Z,19.700
2023-04-09T00:47:05.004Z,16.800
2023-04-09T00:48:05.220Z,17.700
2023-04-09T00:49:05.840Z,18.200
2023-04-09T00:50:04.979Z,20.100
2023-04-09T00:51:05.429Z,19.800
2023-04-09T00:52:05.620Z,19.600
2023-04-09T00:53:05.857Z,19.000
2023-04-09T00:54:04.994Z,19.000
2023-04-09T00:55:05.305Z,18.900
2023-04-09T00:56:05.523Z,20.100
2023-04-09T00:57:05.837Z,17.900
2023-04-09T00:58:05.036Z,19.000
2023-04-09T00:59:05.780Z,18.000
2023-04-09T01:00:04.923Z,17.100
2023-04-09T01:01:05.281Z,17.700
2023-04-09T01:02:06.071Z,17.000
2023-04-09T01:03:05.912Z,17.700
2023-04-09T01:04:05.364Z,18.900
2023-04-09T01:05:05.544Z,18.300
2023-04-09T01:06:05.963Z,19.100
2023-04-09T01:08:05.365Z,17.900
2023-04-09T01:09:06.561Z,17.800
2023-04-09T01:10:05.705Z,18.700
2023-04-09T01:12:04.983Z,19.400
2023-04-09T01:13:05.209Z,17.800
2023-04-09T01:14:05.403Z,17.200
2023-04-09T01:15:06.149Z,17.800
2023-04-09T01:16:05.399Z,18.900
2023-04-09T01:17:05.826Z,32.800
2023-04-09T01:18:05.263Z,23.700
2023-04-09T01:19:06.372Z,32.200
2023-04-09T01:20:05.563Z,25.900
2023-04-09T01:21:05.732Z,19.600
2023-04-09T01:22:04.943Z,19.900
2023-04-09T01:23:05.246Z,21.800
2023-04-09T01:24:05.399Z,17.800
2023-04-09T01:25:05.551Z,21.700
2023-04-09T01:26:05.739Z,24.900
2023-04-09T01:27:05.022Z,30.600
2023-04-09T01:28:05.227Z,30.600
2023-04-09T01:29:05.977Z,26.300
2023-04-09T01:30:05.081Z,28.100
2023-04-09T01:31:05.366Z,29.300
2023-04-09T01:33:05.075Z,27.200
2023-04-09T01:34:05.264Z,27.000
2023-04-09T01:35:05.488Z,28.300
2023-04-09T01:36:05.951Z,25.800
2023-04-09T01:38:05.396Z,23.100
2023-04-09T01:39:06.157Z,22.000
2023-04-09T01:40:05.352Z,24.900
2023-04-09T01:41:05.553Z,20.800
2023-04-09T01:42:05.708Z,28.100
2023-04-09T01:43:04.857Z,34.400
2023-04-09T01:44:05.162Z,26.700
2023-04-09T01:45:05.316Z,24.100
2023-04-09T01:46:05.566Z,39.200
2023-04-09T01:47:04.873Z,39.800
2023-04-09T01:48:05.321Z,36.500
2023-04-09T01:49:06.103Z,46.200
2023-04-09T01:50:05.239Z,42.500
2023-04-09T01:51:05.381Z,52.200
2023-04-09T01:52:05.547Z,51.500
2023-04-09T01:53:05.714Z,56.400
2023-04-09T01:54:04.849Z,63.500
2023-04-09T01:55:05.171Z,44.500
2023-04-09T01:56:05.325Z,41.000
2023-04-09T01:57:05.605Z,49.600
2023-04-09T01:58:05.877Z,54.600
2023-04-09T01:59:05.559Z,41.200
2023-04-09T02:02:05.467Z,47.800
2023-04-09T02:03:05.342Z,51.100
2023-04-09T02:05:05.365Z,36.300
2023-04-09T02:06:05.576Z,21.500
2023-04-09T02:07:05.716Z,18.500
2023-04-09T02:08:04.908Z,20.000
2023-04-09T02:09:05.752Z,20.500
2023-04-09T02:10:05.044Z,21.000
2023-04-09T02:11:05.197Z,19.900
2023-04-09T02:12:05.426Z,20.300
2023-04-09T02:13:05.672Z,20.500
2023-04-09T02:14:04.760Z,20.200
2023-04-09T02:15:04.958Z,20.800
2023-04-09T02:16:05.317Z,20.300
2023-04-09T02:17:05.716Z,21.400
2023-04-09T02:18:05.219Z,20.300
2023-04-09T02:19:06.155Z,21.100
2023-04-09T02:20:05.252Z,22.300
2023-04-09T02:21:05.480Z,20.800
2023-04-09T02:22:05.660Z,20.400
2023-04-09T02:23:04.840Z,20.200
2023-04-09T02:24:05.545Z,20.500
2023-04-09T02:25:05.944Z,21.700
2023-04-09T02:27:05.238Z,20.100
2023-04-09T02:28:05.647Z,19.300
2023-04-09T02:29:06.489Z,18.600
2023-04-09T02:30:05.728Z,20.000
2023-04-09T02:32:05.156Z,20.000
2023-04-09T02:33:05.476Z,19.100
2023-04-09T02:34:05.676Z,19.400
2023-04-09T02:35:04.845Z,19.900
2023-04-09T02:36:05.344Z,19.800
2023-04-09T02:37:05.620Z,21.100
2023-04-09T02:38:04.843Z,20.100
2023-04-09T02:39:05.324Z,19.800
2023-04-09T02:40:05.610Z,19.500
2023-04-09T02:41:05.830Z,19.100
2023-04-09T02:42:05.047Z,19.900
2023-04-09T02:43:05.292Z,18.400
2023-04-09T02:44:05.782Z,19.600
2023-04-09T02:45:04.916Z,18.700
2023-04-09T02:46:05.186Z,19.700
2023-04-09T02:47:05.542Z,18.700
2023-04-09T02:48:05.804Z,19.900
2023-04-09T02:49:05.519Z,19.600
2023-04-09T02:50:05.739Z,18.400
2023-04-09T02:51:04.918Z,19.100
2023-04-09T02:52:05.058Z,19.300
2023-04-09T02:53:05.315Z,19.600
2023-04-09T02:54:05.471Z,19.300
2023-04-09T02:55:05.668Z,19.800
2023-04-09T02:56:04.792Z,19.800
2023-04-09T02:57:04.952Z,19.300
2023-04-09T02:58:06.704Z,19.700
2023-04-09T02:59:04.843Z,19.900
2023-04-09T03:00:05.011Z,19.800
2023-04-09T03:01:05.251Z,19.300
2023-04-09T03:02:05.741Z,18.800
2023-04-09T03:03:05.473Z,19.100
2023-04-09T03:04:05.748Z,20.100
2023-04-09T03:05:05.138Z,20.300
2023-04-09T03:06:05.297Z,19.800
2023-04-09T03:07:05.434Z,18.700
2023-04-09T03:08:05.616Z,19.800
2023-04-09T03:09:06.688Z,20.400
2023-04-09T03:10:04.854Z,19.900
2023-04-09T03:11:04.968Z,18.900
2023-04-09T03:12:05.249Z,19.500
2023-04-09T03:13:05.444Z,19.300
2023-04-09T03:14:05.619Z,18.800
2023-04-09T03:16:05.100Z,18.600
2023-04-09T03:17:05.391Z,18.900
2023-04-09T03:18:06.740Z,18.400
2023-04-09T03:19:05.559Z,19.400
2023-04-09T03:20:05.670Z,18.000
2023-04-09T03:21:05.831Z,19.000
2023-04-09T03:22:05.007Z,18.400
2023-04-09T03:23:05.233Z,17.500
2023-04-09T03:24:05.437Z,19.200
2023-04-09T03:25:05.590Z,18.600
2023-04-09T03:26:05.711Z,18.900
2023-04-09T03:27:04.797Z,18.700
2023-04-09T03:28:04.982Z,19.000
2023-04-09T03:29:05.652Z,18.700
2023-04-09T03:30:04.799Z,18.200
2023-04-09T03:31:04.985Z,19.300
2023-04-09T03:32:05.434Z,19.100
2023-04-09T03:33:05.764Z,19.800
2023-04-09T03:35:05.206Z,18.500
2023-04-09T03:36:05.664Z,18.400
2023-04-09T03:38:05.388Z,19.200
2023-04-09T03:39:06.256Z,19.100
2023-04-09T03:40:05.548Z,22.000
2023-04-09T03:41:05.726Z,19.700
2023-04-09T03:43:04.951Z,20.100
2023-04-09T03:44:05.153Z,20.800
2023-04-09T03:45:05.331Z,20.700
2023-04-09T03:46:05.604Z,19.800
2023-04-09T03:48:05.320Z,20.600
2023-04-09T03:49:06.143Z,20.900
2023-04-09T03:50:05.303Z,19.800
2023-04-09T03:51:05.464Z,20.300
2023-04-09T03:52:05.619Z,19.800
2023-04-09T03:53:04.792Z,20.500
2023-04-09T03:54:04.994Z,21.600
2023-04-09T03:55:05.176Z,20.100
2023-04-09T03:56:05.318Z,21.100
2023-04-09T03:57:05.504Z,20.500
2023-04-09T03:58:05.649Z,19.400
2023-04-09T03:59:05.265Z,20.300
2023-04-09T04:00:05.481Z,19.400
2023-04-09T04:01:05.704Z,19.500
2023-04-09T04:02:05.020Z,20.100
2023-04-09T04:03:06.654Z,20.000
2023-04-09T04:05:05.283Z,19.300
2023-04-09T04:06:05.470Z,20.000
2023-04-09T04:07:05.763Z,20.400
2023-04-09T04:08:04.952Z,20.100
2023-04-09T04:09:05.745Z,21.000
2023-04-09T04:10:04.846Z,20.100
2023-04-09T04:11:05.011Z,21.900
2023-04-09T04:12:05.157Z,20.300
2023-04-09T04:13:05.639Z,19.000
2023-04-09T04:14:04.843Z,19.700
2023-04-09T04:15:04.993Z,18.900
2023-04-09T04:16:05.386Z,20.600
2023-04-09T04:17:04.824Z,19.500
2023-04-09T04:18:05.215Z,20.400
2023-04-09T04:19:05.690Z,19.700
2023-04-09T04:20:04.855Z,19.900
2023-04-09T04:21:04.964Z,20.900
2023-04-09T04:22:05.111Z,19.900
2023-04-09T04:23:05.313Z,20.400
2023-04-09T04:24:05.570Z,21.300
2023-04-09T04:25:05.758Z,20.100
2023-04-09T04:26:05.049Z,20.400
2023-04-09T04:27:05.280Z,20.700
2023-04-09T04:28:05.496Z,21.400
2023-04-09T04:29:06.332Z,20.200
2023-04-09T04:30:05.521Z,20.700
2023-04-09T04:31:05.702Z,21.100
2023-04-09T04:32:05.008Z,19.100
2023-04-09T04:33:05.485Z,21.600
2023-04-09T04:34:05.704Z,21.300
2023-04-09T04:35:04.869Z,22.000
2023-04-09T04:36:05.136Z,22.700
2023-04-09T04:37:05.291Z,22.000
2023-04-09T04:38:05.476Z,21.900
2023-04-09T04:39:06.322Z,20.700
2023-04-09T04:40:05.535Z,22.300
2023-04-09T04:41:05.700Z,21.800
2023-04-09T04:42:04.891Z,21.800
2023-04-09T04:43:05.245Z,21.700
2023-04-09T04:44:05.371Z,22.400
2023-04-09T04:45:05.583Z,22.200
2023-04-09T04:46:08.022Z,21.200
2023-04-09T04:47:05.419Z,22.700
2023-04-09T04:48:05.650Z,21.600
2023-04-09T04:50:05.382Z,21.200
2023-04-09T04:51:05.586Z,21.200
2023-04-09T04:52:05.757Z,20.800
2023-04-09T04:53:04.887Z,21.400
2023-04-09T04:54:05.008Z,21.100
2023-04-09T04:55:05.137Z,20.600
2023-04-09T04:56:05.377Z,20.300
2023-04-09T04:57:05.676Z,21.100
2023-04-09T04:58:04.892Z,21.000
2023-04-09T04:59:05.441Z,20.300
2023-04-09T05:00:05.624Z,21.400
2023-04-09T05:01:04.965Z,20.700
2023-04-09T05:02:05.510Z,21.400
2023-04-09T05:03:05.106Z,20.900
2023-04-09T05:04:05.930Z,20.700
2023-04-09T05:05:05.121Z,21.200
2023-04-09T05:06:05.245Z,20.900
2023-04-09T05:07:05.496Z,21.400
2023-04-09T05:08:05.667Z,21.200
2023-04-09T05:09:05.167Z,22.000
2023-04-09T05:10:05.331Z,21.500
2023-04-09T05:11:05.617Z,20.400
2023-04-09T05:12:05.844Z,20.100
2023-04-09T05:14:05.395Z,20.000
2023-04-09T05:15:05.600Z,19.600
2023-04-09T05:16:05.791Z,19.500
2023-04-09T05:17:05.130Z,20.700
2023-04-09T05:18:05.448Z,20.100
2023-04-09T05:19:06.587Z,20.700
2023-04-09T05:20:05.661Z,20.900
2023-04-09T05:22:04.955Z,20.500
2023-04-09T05:23:05.142Z,20.200
2023-04-09T05:24:05.280Z,20.200
2023-04-09T05:25:05.433Z,18.300
2023-04-09T05:26:05.692Z,20.900
2023-04-09T05:27:04.842Z,20.100
2023-04-09T05:28:05.020Z,20.900
2023-04-09T05:29:05.540Z,20.200
2023-04-09T05:30:05.794Z,20.200
2023-04-09T05:32:05.620Z,20.500
2023-04-09T05:33:06.008Z,20.300
2023-04-09T05:34:05.188Z,19.300
2023-04-09T05:35:05.343Z,20.600
2023-04-09T05:36:05.704Z,19.900
2023-04-09T05:37:04.933Z,20.300
2023-04-09T05:38:05.032Z,20.400
2023-04-09T05:39:05.548Z,20.000
2023-04-09T05:40:05.777Z,21.200
2023-04-09T05:41:04.926Z,19.900
2023-04-09T05:42:05.068Z,21.100
2023-04-09T05:43:05.199Z,20.900
2023-04-09T05:44:05.981Z,20.800
2023-04-09T05:47:05.626Z,20.300
2023-04-09T05:48:05.936Z,20.400
2023-04-09T05:49:05.711Z,21.400
2023-04-09T05:50:04.932Z,18.800
2023-04-09T05:51:11.474Z,19.900
2023-04-09T05:52:05.660Z,20.500
2023-04-09T05:55:04.913Z,19.000
2023-04-09T05:56:05.106Z,19.500
2023-04-09T05:57:05.268Z,19.600
2023-04-09T05:58:05.464Z,19.400
2023-04-09T05:59:05.653Z,19.700
2023-04-09T06:00:04.777Z,19.300
2023-04-09T06:01:04.973Z,19.000
2023-04-09T06:02:05.358Z,20.200
2023-04-09T06:03:05.138Z,20.000
2023-04-09T06:04:08.130Z,19.100
2023-04-09T06:05:05.160Z,19.700
2023-04-09T06:06:05.332Z,19.700
2023-04-09T06:07:05.459Z,20.700
2023-04-09T06:08:05.570Z,19.200
2023-04-09T06:09:05.728Z,20.000
2023-04-09T06:10:04.928Z,19.700
2023-04-09T06:11:05.073Z,18.800
2023-04-09T06:12:05.183Z,19.000
2023-04-09T06:13:05.433Z,19.800
2023-04-09T06:14:06.027Z,19.500
2023-04-09T06:15:05.199Z,20.600
2023-04-09T06:16:05.543Z,20.800
2023-04-09T06:17:04.831Z,20.900
2023-04-09T06:18:05.319Z,20.200
2023-04-09T06:19:04.812Z,19.100
2023-04-09T06:20:04.930Z,20.200
2023-04-09T06:21:05.154Z,19.300
2023-04-09T06:22:05.373Z,19.900
2023-04-09T06:23:05.526Z,19.300
2023-04-09T06:24:06.385Z,20.600
2023-04-09T06:25:06.081Z,21.200
2023-04-09T06:26:05.435Z,19.100
2023-04-09T06:27:05.601Z,18.900
2023-04-09T06:28:05.772Z,18.900
2023-04-09T06:30:05.122Z,18.700
2023-04-09T06:31:05.442Z,20.000
2023-04-09T06:32:05.909Z,20.200
2023-04-09T06:33:10.090Z,19.300
2023-04-09T06:34:05.551Z,20.100
2023-04-09T06:35:05.667Z,19.900
2023-04-09T06:36:05.027Z,19.900
2023-04-09T06:37:05.272Z,20.300
2023-04-09T06:38:05.648Z,19.600
2023-04-09T06:39:05.098Z,20.100
2023-04-09T06:40:10.211Z,20.100
2023-04-09T06:41:05.323Z,20.700
2023-04-09T06:42:05.465Z,20.500
2023-04-09T06:43:05.601Z,19.600
2023-04-09T06:44:06.287Z,20.600
2023-04-09T06:45:05.443Z,20.800
2023-04-09T06:46:05.798Z,20.800
2023-04-09T06:47:05.307Z,21.200
2023-04-09T06:48:05.565Z,21.900
2023-04-09T06:49:04.897Z,20.400
2023-04-09T06:50:05.081Z,19.200
2023-04-09T06:51:05.584Z,19.100
2023-04-09T06:52:05.729Z,18.000
2023-04-09T06:53:05.087Z,19.400
2023-04-09T06:54:05.900Z,19.100
2023-04-09T06:55:05.020Z,20.500
2023-04-09T06:56:05.209Z,20.200
2023-04-09T06:57:05.459Z,19.500
2023-04-09T06:58:05.812Z,20.700
2023-04-09T06:59:05.020Z,20.200
2023-04-09T07:00:05.228Z,19.900
2023-04-09T07:01:05.517Z,20.400
2023-04-09T07:02:09.185Z,21.000
2023-04-09T07:03:06.332Z,20.800
2023-04-09T07:04:06.413Z,21.500
2023-04-09T07:05:06.223Z,20.900
2023-04-09T07:06:05.299Z,20.900
2023-04-09T07:07:05.477Z,21.300
2023-04-09T07:08:05.671Z,21.000
2023-04-09T07:09:05.560Z,19.300
2023-04-09T07:10:05.744Z,21.100
2023-04-09T07:11:04.937Z,20.800
2023-04-09T07:12:05.148Z,20.400
2023-04-09T07:13:05.306Z,20.500
2023-04-09T07:14:05.818Z,21.100
2023-04-09T07:15:05.033Z,19.100
2023-04-09T07:16:05.387Z,21.500
2023-04-09T07:17:05.824Z,21.400
2023-04-09T07:19:05.324Z,21.000
2023-04-09T07:20:05.472Z,20.600
2023-04-09T07:21:05.685Z,21.600
2023-04-09T07:22:05.042Z,20.800
2023-04-09T07:23:05.505Z,20.600
2023-04-09T07:24:06.101Z,21.200
2023-04-09T07:25:05.281Z,20.800
2023-04-09T07:26:05.410Z,20.100
2023-04-09T07:27:07.712Z,20.600
2023-04-09T07:28:04.869Z,20.100
2023-04-09T07:29:05.021Z,21.800
2023-04-09T07:30:05.249Z,20.300
2023-04-09T07:31:05.476Z,22.600
2023-04-09T07:32:05.234Z,21.300
2023-04-09T07:33:05.934Z,21.300
2023-04-09T07:35:04.795Z,22.100
2023-04-09T07:36:05.067Z,20.800
2023-04-09T07:37:05.741Z,21.900
2023-04-09T07:38:04.955Z,22.100
2023-04-09T07:39:05.539Z,21.800
2023-04-09T07:40:05.045Z,22.200
2023-04-09T07:41:05.222Z,23.100
2023-04-09T07:42:05.423Z,22.700
2023-04-09T07:43:05.542Z,22.600
2023-04-09T07:44:05.734Z,22.700
2023-04-09T07:46:05.085Z,22.500
2023-04-09T07:47:05.467Z,22.300
2023-04-09T07:48:05.329Z,21.700
2023-04-09T07:49:06.217Z,22.300
2023-04-09T07:51:05.701Z,22.400
2023-04-09T07:52:04.840Z,22.900
2023-04-09T07:53:04.975Z,22.800
2023-04-09T07:54:05.246Z,22.500
2023-04-09T07:55:05.353Z,23.500
2023-04-09T07:56:05.673Z,22.400
2023-04-09T07:57:04.821Z,23.200
2023-04-09T07:58:05.008Z,22.800
2023-04-09T07:59:05.418Z,23.100
2023-04-09T08:00:05.669Z,22.800
2023-04-09T08:01:04.862Z,21.200
2023-04-09T08:02:05.342Z,21.300
2023-04-09T08:03:05.499Z,20.000
2023-04-09T08:04:06.301Z,22.200
2023-04-09T08:06:05.419Z,21.000
2023-04-09T08:07:05.743Z,21.000
2023-04-09T08:08:04.875Z,22.500
2023-04-09T08:09:05.379Z,23.000
2023-04-09T08:10:05.577Z,23.000
2023-04-09T08:11:05.695Z,22.400
2023-04-09T08:13:05.088Z,17.700
2023-04-09T08:14:05.800Z,19.000
2023-04-09T08:16:05.114Z,19.200
2023-04-09T08:17:05.634Z,20.500
2023-04-09T08:18:06.009Z,19.000
2023-04-09T08:19:05.735Z,19.600
2023-04-09T08:20:04.815Z,21.900
2023-04-09T08:21:04.964Z,22.100
2023-04-09T08:22:05.228Z,21.100
2023-04-09T08:23:05.656Z,18.800
2023-04-09T08:24:04.822Z,16.700
2023-04-09T08:25:05.013Z,17.700
2023-04-09T08:26:06.017Z,18.900
2023-04-09T08:27:05.191Z,17.600
2023-04-09T08:28:05.404Z,18.100
2023-04-09T08:29:05.892Z,17.900
2023-04-09T08:30:05.119Z,18.800
2023-04-09T08:31:05.319Z,17.500
2023-04-09T08:32:05.660Z,18.300
2023-04-09T08:33:05.014Z,19.600
2023-04-09T08:34:05.467Z,17.500
2023-04-09T08:35:05.687Z,17.400
2023-04-09T08:36:04.927Z,19.100
2023-04-09T08:37:05.239Z,19.100
2023-04-09T08:38:05.487Z,18.200
2023-04-09T08:39:06.016Z,18.600
2023-04-09T08:40:05.248Z,18.400
2023-04-09T08:41:05.395Z,20.300
2023-04-09T08:42:05.596Z,19.900
2023-04-09T08:43:05.827Z,20.500
2023-04-09T08:44:13.387Z,18.000
2023-04-09T08:45:05.535Z,19.300
2023-04-09T08:46:05.855Z,18.500
2023-04-09T08:47:05.085Z,18.200
2023-04-09T08:48:05.545Z,17.800
2023-04-09T08:49:05.719Z,19.000
2023-04-09T08:50:04.808Z,19.500
2023-04-09T08:51:04.973Z,19.600
2023-04-09T08:52:05.666Z,18.900
2023-04-09T08:54:05.389Z,16.000
2023-04-09T08:55:05.858Z,13.500
2023-04-09T08:56:05.244Z,15.500
2023-04-09T08:57:05.478Z,15.700
2023-04-09T08:58:05.655Z,15.400
2023-04-09T08:59:04.795Z,17.600
2023-04-09T09:00:04.916Z,17.200
2023-04-09T09:01:05.243Z,16.100
2023-04-09T09:02:06.108Z,16.100
2023-04-09T09:03:05.156Z,16.300
2023-04-09T09:04:05.390Z,17.500
2023-04-09T09:05:06.098Z,16.200
2023-04-09T09:06:05.315Z,16.500
2023-04-09T09:07:05.473Z,16.300
2023-04-09T09:08:05.653Z,16.400
2023-04-09T09:09:04.998Z,16.500
2023-04-09T09:10:05.175Z,16.400
2023-04-09T09:11:05.292Z,17.300
2023-04-09T09:12:05.480Z,16.500
2023-04-09T09:13:05.654Z,17.700
2023-04-09T09:14:04.834Z,17.200
2023-04-09T09:15:05.098Z,17.100
2023-04-09T09:16:05.295Z,17.500
2023-04-09T09:17:05.553Z,16.000
2023-04-09T09:18:05.298Z,17.000
2023-04-09T09:19:08.824Z,17.800
2023-04-09T09:20:05.047Z,16.000
2023-04-09T09:21:05.195Z,17.500
2023-04-09T09:22:05.404Z,18.200
2023-04-09T09:23:10.564Z,18.300
2023-04-09T09:24:05.717Z,17.200
2023-04-09T09:25:06.124Z,18.400
2023-04-09T09:26:05.267Z,17.700
2023-04-09T09:27:05.432Z,17.000
2023-04-09T09:28:05.555Z,16.700
2023-04-09T09:29:06.119Z,17.500
2023-04-09T09:30:05.248Z,18.000
2023-04-09T09:31:05.685Z,18.100
2023-04-09T09:33:05.296Z,17.000
2023-04-09T09:34:05.503Z,18.300
2023-04-09T09:35:05.673Z,18.300
2023-04-09T09:36:04.986Z,19.200
2023-04-09T09:37:06.064Z,17.800
2023-04-09T09:38:04.816Z,17.800
2023-04-09T09:39:05.241Z,17.200
2023-04-09T09:40:05.440Z,15.300
2023-04-09T09:41:05.644Z,15.500
2023-04-09T09:42:05.836Z,15.300
2023-04-09T09:43:05.007Z,15.800
2023-04-09T09:44:05.228Z,17.500
2023-04-09T09:45:05.457Z,16.500
2023-04-09T09:46:05.776Z,17.600
2023-04-09T09:47:05.018Z,16.000
2023-04-09T09:48:05.322Z,16.300
2023-04-09T09:49:06.420Z,16.200
2023-04-09T09:50:05.872Z,16.300
2023-04-09T09:52:05.184Z,15.200
2023-04-09T09:53:05.360Z,15.900
2023-04-09T09:54:05.692Z,15.300
2023-04-09T09:56:05.079Z,13.500
2023-04-09T09:57:05.367Z,14.300
2023-04-09T09:58:05.581Z,14.000
2023-04-09T09:59:06.131Z,12.900
2023-04-09T10:01:05.440Z,14.100
2023-04-09T10:02:06.169Z,14.000
2023-04-09T10:03:05.491Z,14.100
2023-04-09T10:04:04.857Z,13.100
2023-04-09T10:05:05.563Z,14.500
2023-04-09T10:06:05.691Z,14.500
2023-04-09T10:07:07.671Z,14.500
2023-04-09T10:08:04.837Z,14.000
2023-04-09T10:09:05.415Z,13.800
2023-04-09T10:10:05.525Z,14.700
2023-04-09T10:11:05.676Z,13.400
2023-04-09T10:12:04.861Z,13.400
2023-04-09T10:13:05.015Z,13.100
2023-04-09T10:14:05.288Z,11.800
2023-04-09T10:15:05.476Z,11.800
2023-04-09T10:16:05.768Z,11.600
2023-04-09T10:17:05.138Z,11.200
2023-04-09T10:18:05.557Z,12.500
2023-04-09T10:19:05.063Z,13.800
2023-04-09T10:20:05.377Z,13.100
2023-04-09T10:21:05.999Z,14.800
2023-04-09T10:22:05.156Z,14.800
2023-04-09T10:23:05.396Z,13.300
2023-04-09T10:24:05.567Z,13.200
2023-04-09T10:25:05.761Z,13.200
2023-04-09T10:26:04.956Z,13.000
2023-04-09T10:27:05.663Z,13.200
2023-04-09T10:28:04.862Z,12.800
2023-04-09T10:29:05.344Z,13.700
2023-04-09T10:30:05.551Z,13.100
2023-04-09T10:31:05.759Z,11.900
2023-04-09T10:32:05.119Z,12.300
2023-04-09T10:33:05.401Z,12.900
2023-04-09T10:36:05.417Z,12.300
2023-04-09T10:37:05.825Z,12.600
2023-04-09T10:38:04.933Z,12.000
2023-04-09T10:39:05.380Z,12.600
2023-04-09T10:40:05.683Z,11.800
2023-04-09T10:41:05.334Z,12.000
2023-04-09T10:42:05.587Z,12.700
2023-04-09T10:43:05.718Z,14.900
2023-04-09T10:44:04.921Z,12.700
2023-04-09T10:45:05.103Z,13.100
2023-04-09T10:46:05.338Z,13.100
2023-04-09T10:47:06.054Z,14.200
2023-04-09T10:48:05.260Z,13.100
2023-04-09T10:49:05.956Z,12.600
2023-04-09T10:50:05.051Z,12.300
2023-04-09T10:51:05.243Z,13.000
2023-04-09T10:52:05.462Z,13.600
2023-04-09T10:54:05.496Z,12.600
2023-04-09T10:55:05.614Z,12.400
2023-04-09T10:56:05.767Z,11.900
2023-04-09T10:57:04.891Z,12.200
2023-04-09T10:58:05.196Z,11.700
2023-04-09T10:59:05.975Z,12.400
2023-04-09T11:01:04.727Z,11.500
2023-04-09T11:02:05.292Z,11.700
2023-04-09T11:03:05.779Z,12.100
2023-04-09T11:04:05.964Z,11.600
2023-04-09T11:05:04.938Z,9.600
2023-04-09T11:06:05.189Z,9.200
2023-04-09T11:07:05.391Z,10.900
2023-04-09T11:08:05.511Z,9.900
2023-04-09T11:09:06.105Z,9.300
2023-04-09T11:10:05.262Z,8.900
2023-04-09T11:11:07.866Z,9.100
2023-04-09T11:12:05.028Z,9.200
2023-04-09T11:13:05.175Z,9.400
2023-04-09T11:14:05.381Z,8.400
2023-04-09T11:15:05.540Z,8.800
2023-04-09T11:16:05.912Z,8.500
2023-04-09T11:17:05.497Z,9.000
2023-04-09T11:18:05.862Z,9.800
2023-04-09T11:19:05.323Z,9.300
2023-04-09T11:20:05.539Z,9.900
2023-04-09T11:21:05.686Z,9.500
2023-04-09T11:22:04.840Z,9.600
2023-04-09T11:23:05.000Z,10.100
2023-04-09T11:24:05.217Z,9.700
2023-04-09T11:25:05.392Z,10.900
2023-04-09T11:27:05.831Z,9.900
2023-04-09T11:28:04.948Z,10.000
2023-04-09T11:29:05.313Z,10.100
2023-04-09T11:30:05.456Z,10.400
2023-04-09T11:31:05.689Z,10.200
2023-04-09T11:32:05.326Z,9.300
2023-04-09T11:33:05.805Z,9.500
2023-04-09T11:34:05.117Z,10.900
2023-04-09T11:35:05.334Z,9.000
2023-04-09T11:36:05.640Z,10.000
2023-04-09T11:37:05.090Z,11.200
2023-04-09T11:38:05.328Z,10.200
2023-04-09T11:39:05.781Z,10.400
2023-04-09T11:40:04.917Z,9.900
2023-04-09T11:41:05.795Z,10.700
2023-04-09T11:42:04.890Z,10.800
2023-04-09T11:43:05.161Z,9.900
2023-04-09T11:44:05.386Z,10.200
2023-04-09T11:45:05.576Z,9.600
2023-04-09T11:46:05.748Z,9.900
2023-04-09T11:47:04.971Z,10.900
2023-04-09T11:48:05.600Z,10.300
2023-04-09T11:49:05.176Z,10.300
2023-04-09T11:50:05.272Z,10.300
2023-04-09T11:51:05.481Z,10.100
2023-04-09T11:52:05.623Z,9.800
2023-04-09T11:53:04.815Z,10.100
2023-04-09T11:54:04.971Z,10.100
2023-04-09T11:55:05.129Z,9.800
2023-04-09T11:56:05.391Z,9.500
2023-04-09T11:57:06.536Z,9.800
2023-04-09T11:59:04.995Z,10.800
2023-04-09T12:00:05.410Z,10.300
2023-04-09T12:01:05.752Z,9.500
2023-04-09T12:02:05.247Z,9.600
2023-04-09T12:03:06.456Z,9.700
2023-04-09T12:04:05.985Z,9.400
2023-04-09T12:05:05.969Z,9.600
2023-04-09T12:06:05.593Z,9.100
2023-04-09T12:07:05.735Z,9.400
2023-04-09T12:08:10.896Z,9.500
2023-04-09T12:09:05.090Z,9.100
2023-04-09T12:10:05.216Z,9.100
2023-04-09T12:11:08.314Z,9.500
2023-04-09T12:12:05.436Z,9.600
2023-04-09T12:13:05.811Z,9.800
2023-04-09T12:14:04.964Z,9.700
2023-04-09T12:15:05.182Z,9.800
2023-04-09T12:16:05.486Z,8.600
2023-04-09T12:17:06.021Z,8.700
2023-04-09T12:18:05.266Z,9.200
2023-04-09T12:19:05.692Z,9.000
2023-04-09T12:20:04.754Z,8.700
2023-04-09T12:21:04.947Z,8.900
2023-04-09T12:22:05.164Z,9.000
2023-04-09T12:23:05.324Z,9.300
2023-04-09T12:24:05.560Z,9.400
2023-04-09T12:25:05.808Z,9.200
2023-04-09T12:26:04.897Z,8.700
2023-04-09T12:27:05.123Z,9.300
2023-04-09T12:28:06.939Z,10.100
2023-04-09T12:29:05.109Z,9.300
2023-04-09T12:30:05.278Z,9.300
2023-04-09T12:31:05.575Z,9.400
2023-04-09T12:32:06.133Z,9.900
2023-04-09T12:34:05.807Z,8.800
2023-04-09T12:35:04.949Z,8.800
2023-04-09T12:36:05.368Z,8.600
2023-04-09T12:37:05.623Z,9.400
2023-04-09T12:38:05.887Z,8.500
2023-04-09T12:39:05.398Z,8.900
2023-04-09T12:40:07.392Z,8.700
2023-04-09T12:41:05.501Z,8.700
2023-04-09T12:42:05.721Z,9.900
2023-04-09T12:44:05.256Z,10.700
2023-04-09T12:45:05.611Z,9.800
2023-04-09T12:46:05.992Z,9.300
2023-04-09T12:47:05.190Z,9.100
2023-04-09T12:48:05.592Z,8.700
2023-04-09T12:49:04.802Z,8.500
2023-04-09T12:50:04.943Z,9.000
2023-04-09T12:51:05.122Z,9.600
2023-04-09T12:52:05.253Z,9.400
2023-04-09T12:53:05.443Z,9.200
2023-04-09T12:54:06.039Z,9.400
2023-04-09T12:55:05.186Z,10.200
2023-04-09T12:56:05.359Z,9.700
2023-04-09T12:57:05.529Z,9.200
2023-04-09T12:58:05.684Z,9.500
2023-04-09T12:59:05.092Z,9.400
2023-04-09T13:00:05.330Z,9.600
2023-04-09T13:01:05.506Z,8.700
2023-04-09T13:02:06.412Z,9.300
2023-04-09T13:03:05.195Z,9.400
2023-04-09T13:04:05.396Z,9.500
2023-04-09T13:06:05.412Z,9.400
2023-04-09T13:07:05.563Z,9.300
2023-04-09T13:08:05.832Z,9.800
2023-04-09T13:09:04.950Z,9.400
2023-04-09T13:10:05.239Z,8.800
2023-04-09T13:11:05.476Z,9.500
2023-04-09T13:12:05.617Z,9.300
2023-04-09T13:13:04.853Z,8.900
2023-04-09T13:14:05.405Z,9.400
2023-04-09T13:15:05.565Z,9.600
2023-04-09T13:17:05.160Z,9.100
2023-04-09T13:18:05.616Z,8.800